Time;durP1;ratioP1;P1;durP2;ratioP2;P2;SDS_P1;SDS_P2;PMS_P1;PMS_P2;Temp;Humidity;BMP_temperature;BMP_pressure;BME280_temperature;BME280_humidity;BME280_pressure;Samples;Min_cycle;Max_cycle;Signal;HPM_P1;HPM_P2
2023/07/22 00:00:01;;;;;;;4.65;3.20;;;;;;;17.70;77.95;92796.66;2035523;70;20135;-81
2023/07/22 00:02:31;;;;;;;4.53;3.00;;;;;;;17.75;77.73;92804.00;2042468;70;20151;-82
2023/07/22 00:05:01;;;;;;;5.35;2.90;;;;;;;17.74;77.00;92796.13;2043383;70;20162;-81
2023/07/22 00:07:28;;;;;;;8.57;3.10;;;;;;;17.70;77.81;92798.78;2042447;70;20128;-81
2023/07/22 00:09:54;;;;;;;9.32;2.70;;;;;;;17.66;77.68;92792.94;2042926;70;20171;-82
2023/07/22 00:12:24;;;;;;;4.80;2.72;;;;;;;17.68;77.15;92796.56;2045034;70;20253;-82
2023/07/22 00:14:50;;;;;;;5.50;2.75;;;;;;;17.69;77.33;92794.47;2044342;70;20517;-81
2023/07/22 00:17:17;;;;;;;5.70;3.17;;;;;;;17.72;77.33;92790.31;2047657;70;20157;-81
2023/07/22 00:19:42;;;;;;;6.63;2.50;;;;;;;17.70;76.82;92787.41;2047529;70;20143;-82
2023/07/22 00:22:09;;;;;;;7.32;2.80;;;;;;;17.59;77.74;92789.13;2047558;70;20550;-82
2023/07/22 00:24:48;;;;;;;8.13;2.63;;;;;;;17.64;77.72;92790.00;2044243;70;20167;-82
2023/07/22 00:27:14;;;;;;;6.57;2.90;;;;;;;17.62;77.73;92787.81;2047858;70;20187;-81
2023/07/22 00:29:40;;;;;;;5.93;2.70;;;;;;;17.56;77.92;92781.91;2044627;70;20174;-81
2023/07/22 00:32:08;;;;;;;5.97;2.83;;;;;;;17.58;77.29;92786.94;2047933;70;20588;-80
2023/07/22 00:34:34;;;;;;;5.72;2.75;;;;;;;17.52;77.96;92788.19;2044475;70;20173;-80
2023/07/22 00:37:00;;;;;;;7.95;3.22;;;;;;;17.64;77.46;92790.75;2044491;70;20150;-80
2023/07/22 00:39:25;;;;;;;5.90;2.85;;;;;;;17.62;77.65;92799.22;2047867;70;20143;-80
2023/07/22 00:41:52;;;;;;;5.57;3.03;;;;;;;17.62;77.64;92784.25;2048068;70;20147;-80
2023/07/22 00:44:18;;;;;;;5.35;3.45;;;;;;;17.60;77.54;92775.66;2041897;70;20234;-81
2023/07/22 00:46:44;;;;;;;7.05;3.70;;;;;;;17.65;77.28;92777.97;2044584;70;20338;-81
2023/07/22 00:49:10;;;;;;;7.75;3.60;;;;;;;17.74;77.32;92781.88;2044511;70;20181;-82
2023/07/22 00:51:35;;;;;;;7.97;4.00;;;;;;;17.77;77.63;92783.38;2044381;70;20142;-81
2023/07/22 00:54:04;;;;;;;6.45;4.10;;;;;;;17.82;77.65;92781.41;2044643;70;20607;-82
2023/07/22 00:56:35;;;;;;;7.43;3.50;;;;;;;17.78;77.69;92776.31;2047842;70;20154;-81
2023/07/22 00:59:03;;;;;;;7.55;3.20;;;;;;;17.83;77.56;92775.09;2047736;70;20612;-82
2023/07/22 01:01:29;;;;;;;5.70;2.72;;;;;;;17.85;77.51;92778.00;2044466;70;20154;-82
2023/07/22 01:03:56;;;;;;;5.15;3.00;;;;;;;17.82;77.63;92781.41;2048013;70;20588;-81
2023/07/22 01:06:31;;;;;;;4.75;3.40;;;;;;;17.78;78.46;92777.06;2048009;70;20139;-81
2023/07/22 01:09:01;;;;;;;7.35;3.60;;;;;;;17.70;78.53;92758.94;2045138;70;20131;-81
2023/07/22 01:11:30;;;;;;;5.95;3.92;;;;;;;17.83;78.55;92771.50;2048896;70;20158;-81
2023/07/22 01:13:57;;;;;;;7.82;3.55;;;;;;;17.87;78.52;92772.38;2044528;70;20175;-82
2023/07/22 01:16:31;;;;;;;7.82;3.72;;;;;;;17.85;78.14;92774.41;2041711;70;20714;-82
2023/07/22 01:19:05;;;;;;;5.10;3.90;;;;;;;17.84;77.93;92770.13;2048403;70;20146;-81
2023/07/22 01:21:33;;;;;;;7.40;3.97;;;;;;;17.86;77.65;92765.19;2049145;70;20229;-82
2023/07/22 01:24:07;;;;;;;6.25;3.78;;;;;;;17.82;78.00;92773.59;2046547;70;20190;-83
2023/07/22 01:26:38;;;;;;;6.95;3.75;;;;;;;17.78;78.87;92762.09;2045823;70;20736;-80
2023/07/22 01:29:09;;;;;;;11.95;3.78;;;;;;;17.78;79.34;92759.97;2048598;70;20151;-81
2023/07/22 01:31:56;;;;;;;5.28;3.78;;;;;;;17.76;79.12;92762.72;2048430;70;20139;-82
2023/07/22 01:34:26;;;;;;;7.78;4.18;;;;;;;17.79;78.59;92755.00;2044958;70;20182;-82
2023/07/22 01:36:54;;;;;;;7.38;3.65;;;;;;;17.82;78.34;92758.63;2048159;70;20135;-81
2023/07/22 01:39:27;;;;;;;12.65;4.20;;;;;;;17.87;77.61;92758.13;2048254;70;20154;-82
2023/07/22 01:41:57;;;;;;;6.10;3.85;;;;;;;17.92;77.64;92764.72;2048104;70;20165;-81
2023/07/22 01:44:28;;;;;;;6.35;4.70;;;;;;;17.85;78.49;92751.63;2048022;70;20154;-82
2023/07/22 01:46:56;;;;;;;5.72;4.63;;;;;;;17.87;78.38;92766.69;2048289;70;20636;-83
2023/07/22 01:49:34;;;;;;;6.32;4.85;;;;;;;17.63;78.17;92729.50;2042299;70;20604;-84
2023/07/22 01:52:07;;;;;;;7.90;4.35;;;;;;;17.89;78.30;92763.91;2048005;70;20126;-81
2023/07/22 01:54:43;;;;;;;10.88;4.63;;;;;;;17.87;78.65;92772.38;2041545;70;20151;-83
2023/07/22 01:57:10;;;;;;;8.25;4.40;;;;;;;17.79;79.37;92769.25;2038247;70;20186;-84
2023/07/22 01:59:41;;;;;;;8.32;3.95;;;;;;;17.74;79.50;92774.06;2041462;70;20230;-83
2023/07/22 02:02:11;;;;;;;8.73;4.00;;;;;;;17.76;79.81;92779.81;2041884;70;20157;-83
2023/07/22 02:04:43;;;;;;;9.77;4.43;;;;;;;17.71;79.83;92772.50;2041610;70;20139;-82
2023/07/22 02:07:15;;;;;;;7.15;4.30;;;;;;;17.78;79.90;92777.06;2041347;70;20147;-83
2023/07/22 02:09:51;;;;;;;;;;;;;;;17.86;79.27;92775.88;2041647;70;20231;-82
2023/07/22 02:12:21;;;;;;;9.40;5.30;;;;;;;17.67;79.72;92769.50;2038337;70;20142;-82
2023/07/22 02:14:47;;;;;;;8.63;5.18;;;;;;;17.39;80.47;92771.31;2038141;70;20151;-83
2023/07/22 02:17:15;;;;;;;9.32;4.68;;;;;;;17.36;80.51;92772.63;2041471;70;20201;-82
2023/07/22 02:19:48;;;;;;;7.80;5.30;;;;;;;17.28;81.11;92773.81;2038121;70;20163;-82
2023/07/22 02:22:14;;;;;;;6.72;4.88;;;;;;;17.51;79.55;92774.63;2041079;70;20617;-82
2023/07/22 02:24:39;;;;;;;9.60;5.05;;;;;;;17.59;78.84;92774.91;2041065;70;20143;-81
2023/07/22 02:27:05;;;;;;;8.80;4.85;;;;;;;17.59;78.74;92780.59;2040686;70;20151;-82
2023/07/22 02:29:31;;;;;;;8.95;5.00;;;;;;;17.10;82.17;92773.13;2041128;70;20152;-81
2023/07/22 02:31:57;;;;;;;10.18;5.32;;;;;;;17.26;81.28;92773.72;2041269;70;20565;-83
2023/07/22 02:34:23;;;;;;;8.48;5.32;;;;;;;17.39;80.53;92772.06;2040529;70;20207;-81
2023/07/22 02:36:49;;;;;;;11.48;5.38;;;;;;;17.16;81.63;92781.16;2040513;70;20233;-81
2023/07/22 02:39:15;;;;;;;12.45;5.32;;;;;;;17.16;81.40;92779.03;2037885;70;20186;-82
2023/07/22 02:41:41;;;;;;;8.18;5.20;;;;;;;17.31;80.81;92779.56;2037774;70;20241;-81
2023/07/22 02:44:06;;;;;;;8.77;5.20;;;;;;;17.36;79.56;92775.47;2037763;70;20135;-81
2023/07/22 02:46:32;;;;;;;9.68;5.28;;;;;;;17.26;80.47;92781.53;2041009;70;20138;-81
2023/07/22 02:49:01;;;;;;;9.10;5.22;;;;;;;17.36;80.46;92781.16;2040438;70;20570;-81
2023/07/22 02:51:27;;;;;;;8.63;4.97;;;;;;;17.33;78.33;92779.66;2037666;70;20148;-81
2023/07/22 02:53:52;;;;;;;7.63;4.90;;;;;;;17.39;78.82;92785.56;2041731;70;20147;-82
2023/07/22 02:56:19;;;;;;;10.35;5.25;;;;;;;17.48;78.39;92778.78;2042617;70;20642;-81
2023/07/22 02:58:44;;;;;;;8.52;5.00;;;;;;;17.47;78.50;92763.81;2041123;70;20644;-82
2023/07/22 03:01:10;;;;;;;9.07;4.88;;;;;;;17.49;77.94;92771.69;2041174;70;20179;-82
2023/07/22 03:03:37;;;;;;;7.25;5.05;;;;;;;17.42;79.09;92787.09;2040670;70;20153;-81
2023/07/22 03:06:07;;;;;;;9.68;5.20;;;;;;;17.51;78.53;92781.03;2041117;70;20150;-81
2023/07/22 03:08:32;;;;;;;8.00;5.30;;;;;;;17.57;78.67;92785.50;2037683;70;20167;-82
2023/07/22 03:10:58;;;;;;;8.02;4.95;;;;;;;17.53;79.30;92795.34;2040571;70;20243;-80
2023/07/22 03:13:24;;;;;;;8.57;4.57;;;;;;;17.53;79.52;92781.09;2040719;70;20211;-81
2023/07/22 03:15:49;;;;;;;11.15;5.10;;;;;;;17.46;79.31;92787.25;2040865;70;20590;-81
2023/07/22 03:18:15;;;;;;;7.82;5.07;;;;;;;17.42;78.99;92787.81;2037323;70;20147;-82
2023/07/22 03:20:42;;;;;;;6.97;4.97;;;;;;;17.01;81.94;92797.66;2041264;70;20269;-81
2023/07/22 03:23:07;;;;;;;7.07;4.93;;;;;;;16.64;84.81;92797.59;2037786;70;20147;-81
2023/07/22 03:25:34;;;;;;;8.93;4.80;;;;;;;16.79;84.45;92802.50;2041280;70;20147;-82
2023/07/22 03:28:03;;;;;;;7.07;4.53;;;;;;;17.09;82.21;92802.19;2040709;70;20147;-81
2023/07/22 03:30:30;;;;;;;8.00;4.85;;;;;;;16.84;82.65;92789.16;2041312;70;20186;-82
2023/07/22 03:32:55;;;;;;;7.82;5.15;;;;;;;17.02;82.95;92787.75;2038058;70;20186;-81
2023/07/22 03:35:21;;;;;;;10.48;4.95;;;;;;;17.18;81.36;92792.59;2041661;70;20657;-82
2023/07/22 03:37:47;;;;;;;8.32;4.78;;;;;;;17.21;81.09;92797.72;2038405;70;20147;-82
2023/07/22 03:40:26;;;;;;;7.40;4.78;;;;;;;17.24;80.55;92798.53;2041765;70;20517;-81
2023/07/22 03:42:53;;;;;;;8.95;4.85;;;;;;;17.25;81.09;92797.13;2041781;70;20142;-82
2023/07/22 03:45:20;;;;;;;7.00;4.47;;;;;;;17.28;80.05;92799.41;2041825;70;20148;-82
2023/07/22 03:47:51;;;;;;;10.57;4.82;;;;;;;17.26;80.52;92804.28;2041754;70;20135;-82
2023/07/22 03:50:16;;;;;;;7.75;4.90;;;;;;;17.25;80.14;92797.13;2041821;70;20151;-82
2023/07/22 03:52:42;;;;;;;7.45;4.70;;;;;;;17.23;79.68;92800.66;2041681;70;20143;-81
2023/07/22 03:55:08;;;;;;;7.38;4.60;;;;;;;17.18;81.24;92790.50;2041723;70;20155;-81
2023/07/22 03:57:34;;;;;;;7.28;4.85;;;;;;;17.19;81.61;92802.59;2041079;70;20517;-82
2023/07/22 04:00:00;;;;;;;8.55;5.10;;;;;;;17.26;80.64;92802.16;2038517;70;20142;-82
2023/07/22 04:02:27;;;;;;;9.32;5.07;;;;;;;17.21;80.72;92806.25;2041191;70;20150;-82
2023/07/22 04:04:54;;;;;;;8.93;5.45;;;;;;;17.32;79.99;92809.47;2041195;70;20153;-82
2023/07/22 04:07:20;;;;;;;9.38;4.88;;;;;;;17.31;80.84;92808.00;2041663;70;20160;-82
2023/07/22 04:09:46;;;;;;;8.77;4.93;;;;;;;17.26;79.62;92810.69;2041719;70;20681;-82
2023/07/22 04:12:12;;;;;;;10.10;5.40;;;;;;;17.05;82.31;92808.47;2041149;70;20158;-82
2023/07/22 04:14:38;;;;;;;8.48;4.97;;;;;;;17.02;82.74;92801.25;2041155;70;20533;-82
2023/07/22 04:17:04;;;;;;;9.70;5.20;;;;;;;17.11;81.88;92805.88;2041190;70;20601;-82
2023/07/22 04:19:31;;;;;;;6.57;4.95;;;;;;;16.87;83.40;92807.78;2041097;70;20310;-82
2023/07/22 04:21:59;;;;;;;11.27;5.25;;;;;;;16.95;82.65;92805.97;2041600;70;20128;-82
2023/07/22 04:24:25;;;;;;;9.73;4.90;;;;;;;16.96;82.58;92807.44;2041465;70;20238;-82
2023/07/22 04:26:52;;;;;;;7.43;4.80;;;;;;;17.17;81.76;92794.72;2041764;70;20143;-83
2023/07/22 04:29:18;;;;;;;8.25;4.80;;;;;;;17.07;81.92;92793.59;2038441;70;20162;-82
2023/07/22 04:31:44;;;;;;;10.00;4.70;;;;;;;17.02;82.53;92796.28;2038362;70;20267;-82
2023/07/22 04:34:11;;;;;;;7.47;4.97;;;;;;;17.17;81.26;92796.81;2041106;70;20159;-82
2023/07/22 04:36:36;;;;;;;6.90;4.88;;;;;;;16.88;82.59;92803.53;2041498;70;20677;-82
2023/07/22 04:39:04;;;;;;;9.25;5.63;;;;;;;16.77;83.78;92799.59;2041689;70;20144;-83
2023/07/22 04:41:30;;;;;;;12.90;5.90;;;;;;;16.64;86.21;92800.44;2041795;70;20214;-82
2023/07/22 04:43:58;;;;;;;9.43;5.50;;;;;;;16.79;84.58;92796.06;2041916;70;20574;-83
2023/07/22 04:46:24;;;;;;;8.52;5.53;;;;;;;16.88;84.80;92801.44;2041143;70;20135;-83
2023/07/22 04:48:49;;;;;;;8.65;5.38;;;;;;;16.95;83.68;92805.97;2044378;70;20138;-84
2023/07/22 04:51:15;;;;;;;8.65;5.22;;;;;;;16.73;85.24;92788.03;2043507;70;20167;-83
2023/07/22 04:53:41;;;;;;;8.02;4.97;;;;;;;16.44;87.44;92812.44;2038469;70;20589;-83
2023/07/22 04:56:06;;;;;;;8.68;6.00;;;;;;;16.72;85.54;92806.47;2041605;70;20585;-83
2023/07/22 04:58:32;;;;;;;10.73;5.57;;;;;;;16.81;85.11;92816.03;2041552;70;20175;-83
2023/07/22 05:00:58;;;;;;;10.90;5.93;;;;;;;16.87;84.79;92802.81;2041593;70;20608;-83
2023/07/22 05:03:26;;;;;;;8.15;5.20;;;;;;;17.04;82.92;92798.47;2041638;70;20143;-83
2023/07/22 05:05:53;;;;;;;9.73;5.68;;;;;;;17.05;83.03;92814.16;2041632;70;20654;-83
2023/07/22 05:08:21;;;;;;;9.80;5.55;;;;;;;17.03;83.56;92808.38;2041412;70;20223;-83
2023/07/22 05:10:47;;;;;;;7.75;5.47;;;;;;;16.92;83.89;92812.97;2041556;70;20648;-83
2023/07/22 05:13:12;;;;;;;6.53;4.75;;;;;;;17.09;82.57;92805.03;2041595;70;20147;-83
2023/07/22 05:15:38;;;;;;;12.15;5.28;;;;;;;17.09;81.99;92822.09;2041751;70;20155;-83
2023/07/22 05:18:03;;;;;;;11.07;5.22;;;;;;;17.10;81.29;92823.59;2041576;70;20147;-83
2023/07/22 05:20:29;;;;;;;7.10;4.57;;;;;;;17.24;81.94;92810.63;2041044;70;20195;-83
2023/07/22 05:22:55;;;;;;;6.25;4.78;;;;;;;17.19;81.34;92813.97;2041402;70;20645;-83
2023/07/22 05:25:21;;;;;;;9.25;5.70;;;;;;;17.08;81.47;92814.97;2041533;70;20155;-83
2023/07/22 05:27:46;;;;;;;9.50;4.93;;;;;;;17.28;81.10;92819.31;2038311;70;20201;-83
2023/07/22 05:30:12;;;;;;;10.70;5.75;;;;;;;17.14;81.13;92824.47;2041501;70;20609;-83
2023/07/22 05:32:38;;;;;;;9.35;4.95;;;;;;;17.31;81.13;92830.78;2041542;70;20633;-83
2023/07/22 05:35:04;;;;;;;7.43;4.93;;;;;;;17.18;81.83;92826.72;2041484;70;20554;-83
2023/07/22 05:37:30;;;;;;;8.20;5.43;;;;;;;16.88;83.20;92837.66;2041526;70;20139;-82
2023/07/22 05:39:56;;;;;;;7.35;5.60;;;;;;;17.32;81.65;92832.22;2041676;70;20147;-83
2023/07/22 05:42:22;;;;;;;8.75;4.75;;;;;;;17.56;80.48;92836.00;2041616;70;20202;-83
2023/07/22 05:44:48;;;;;;;11.07;5.65;;;;;;;17.64;79.79;92829.84;2041668;70;20186;-83
2023/07/22 05:47:14;;;;;;;8.43;5.10;;;;;;;17.68;79.63;92836.44;2041593;70;20159;-83
2023/07/22 05:49:39;;;;;;;7.90;4.70;;;;;;;17.71;77.74;92831.56;2041574;70;20494;-83
2023/07/22 05:52:05;;;;;;;9.40;5.25;;;;;;;17.46;80.15;92830.66;2041483;70;20255;-83
2023/07/22 05:54:31;;;;;;;10.55;5.00;;;;;;;17.36;81.07;92826.69;2041523;70;20186;-83
2023/07/22 05:56:57;;;;;;;8.70;4.95;;;;;;;17.36;80.18;92832.38;2041613;70;20155;-83
2023/07/22 05:59:22;;;;;;;8.35;5.00;;;;;;;17.19;81.49;92836.75;2041437;70;20151;-82
2023/07/22 06:01:48;;;;;;;8.73;5.28;;;;;;;17.52;79.88;92833.72;2041586;70;20139;-81
2023/07/22 06:04:13;;;;;;;7.00;5.10;;;;;;;17.51;80.16;92840.09;2041723;70;20513;-82
2023/07/22 06:06:39;;;;;;;7.80;4.70;;;;;;;18.00;77.23;92836.16;2041491;70;20586;-83
2023/07/22 06:09:04;;;;;;;9.57;5.20;;;;;;;17.91;78.42;92835.16;2041507;70;20560;-83
2023/07/22 06:11:30;;;;;;;8.00;4.85;;;;;;;18.10;77.33;92838.66;2041747;70;20159;-84
2023/07/22 06:13:56;;;;;;;7.25;4.68;;;;;;;18.14;78.45;92839.50;2041958;70;20235;-85
2023/07/22 06:16:22;;;;;;;7.47;4.78;;;;;;;18.51;77.27;92846.50;2041581;70;20155;-84
2023/07/22 06:18:48;;;;;;;9.55;4.57;;;;;;;18.62;75.98;92839.72;2041591;70;20139;-84
2023/07/22 06:21:13;;;;;;;8.07;4.75;;;;;;;18.84;75.24;92841.91;2041894;70;20182;-85
2023/07/22 06:23:39;;;;;;;6.28;4.72;;;;;;;18.54;74.55;92845.88;2041470;70;20609;-83
2023/07/22 06:26:05;;;;;;;7.93;4.38;;;;;;;18.47;75.02;92843.50;2041661;70;20159;-83
2023/07/22 06:28:30;;;;;;;5.20;3.90;;;;;;;18.63;73.91;92852.59;2041690;70;20159;-84
2023/07/22 06:30:57;;;;;;;7.13;4.13;;;;;;;18.79;72.74;92852.44;2042089;70;20143;-85
2023/07/22 06:33:22;;;;;;;6.10;4.40;;;;;;;19.01;72.95;92852.41;2041641;70;20140;-85
2023/07/22 06:35:48;;;;;;;8.98;4.80;;;;;;;19.05;73.11;92856.13;2041587;70;20203;-85
2023/07/22 06:38:14;;;;;;;5.93;3.97;;;;;;;19.22;71.99;92843.09;2041255;70;20143;-85
2023/07/22 06:40:40;;;;;;;6.30;4.22;;;;;;;19.01;70.91;92856.00;2041553;70;20151;-85
2023/07/22 06:43:06;;;;;;;5.60;4.15;;;;;;;19.31;70.98;92852.66;2046711;70;20190;-86
2023/07/22 06:45:32;;;;;;;6.90;4.07;;;;;;;19.59;70.10;92843.47;2044731;70;20152;-85
2023/07/22 06:47:58;;;;;;;5.95;4.55;;;;;;;19.40;70.66;92839.34;2041957;70;20148;-85
2023/07/22 06:50:24;;;;;;;7.43;4.40;;;;;;;19.78;69.45;92846.22;2041522;70;20128;-85
2023/07/22 06:52:50;;;;;;;7.53;4.05;;;;;;;19.84;70.17;92847.78;2041283;70;20214;-84
2023/07/22 06:55:16;;;;;;;5.40;3.80;;;;;;;19.91;69.68;92843.72;2041410;70;20254;-85
2023/07/22 06:57:41;;;;;;;10.15;4.38;;;;;;;19.40;70.40;92845.78;2041333;70;20282;-85
2023/07/22 07:00:09;;;;;;;6.75;4.47;;;;;;;19.13;71.24;92852.06;2041392;70;20266;-85
2023/07/22 07:02:35;;;;;;;5.65;4.32;;;;;;;19.04;73.02;92843.25;2041858;70;20232;-84
2023/07/22 07:05:03;;;;;;;4.72;4.05;;;;;;;19.39;71.82;92857.88;2041350;70;20207;-85
2023/07/22 07:07:29;;;;;;;5.60;4.25;;;;;;;19.43;71.19;92840.88;2041385;70;20147;-84
2023/07/22 07:09:55;;;;;;;6.63;3.95;;;;;;;19.57;70.63;92844.16;2037955;70;20165;-82
2023/07/22 07:12:22;;;;;;;6.88;4.25;;;;;;;19.77;69.59;92847.63;2038434;70;20212;-87
2023/07/22 07:14:50;;;;;;;7.68;4.00;;;;;;;19.96;68.10;92848.16;2038378;70;20238;-87
2023/07/22 07:17:15;;;;;;;5.53;3.97;;;;;;;20.02;67.53;92843.34;2041407;70;20689;-89
2023/07/22 07:19:41;;;;;;;12.57;4.32;;;;;;;19.88;67.71;92839.34;2041549;70;20736;-88
2023/07/22 07:22:07;;;;;;;6.03;3.85;;;;;;;19.70;66.75;92840.28;2041566;70;20139;-86
2023/07/22 07:24:34;;;;;;;8.50;4.47;;;;;;;19.52;68.74;92839.72;2038475;70;20249;-88
2023/07/22 07:27:00;;;;;;;5.20;3.90;;;;;;;19.87;68.51;92835.03;2040975;70;20578;-87
2023/07/22 07:29:27;;;;;;;7.05;4.30;;;;;;;20.04;67.76;92840.53;2041923;70;20167;-90
2023/07/22 07:31:53;;;;;;;6.10;4.10;;;;;;;20.15;68.18;92840.81;2041513;70;20155;-85
2023/07/22 07:34:18;;;;;;;5.30;3.53;;;;;;;20.48;67.72;92837.47;2041492;70;20208;-86
2023/07/22 07:36:44;;;;;;;6.50;4.00;;;;;;;20.57;67.20;92829.81;2041122;70;20562;-86
2023/07/22 07:39:09;;;;;;;5.45;3.75;;;;;;;20.69;64.87;92838.69;2037268;70;20139;-87
2023/07/22 07:41:35;;;;;;;4.50;3.30;;;;;;;20.98;65.46;92840.16;2038211;70;20174;-88
2023/07/22 07:44:01;;;;;;;6.85;3.53;;;;;;;21.27;67.39;92835.09;2041441;70;20159;-87
2023/07/22 07:46:28;;;;;;;4.53;3.15;;;;;;;21.02;66.13;92837.38;2041341;70;20147;-87
2023/07/22 07:49:00;;;;;;;4.35;3.20;;;;;;;21.12;67.63;92833.28;2040773;70;20194;-87
2023/07/22 07:51:27;;;;;;;7.60;3.67;;;;;;;21.04;65.24;92837.44;2040267;70;20188;-86
2023/07/22 07:53:53;;;;;;;5.47;3.47;;;;;;;21.17;67.64;92840.59;2040533;70;20171;-88
2023/07/22 07:56:20;;;;;;;6.25;3.33;;;;;;;21.46;68.28;92842.00;2040607;70;20147;-87
2023/07/22 07:58:47;;;;;;;5.35;3.78;;;;;;;21.49;64.82;92837.78;2040391;70;20286;-86
2023/07/22 08:01:12;;;;;;;5.80;3.97;;;;;;;20.95;62.30;92844.38;2040492;70;20163;-84
2023/07/22 08:03:39;;;;;;;4.63;3.60;;;;;;;21.33;62.25;92843.13;2040983;70;20185;-86
2023/07/22 08:06:06;;;;;;;4.80;3.72;;;;;;;21.34;60.55;92839.56;2041385;70;20167;-85
2023/07/22 08:08:32;;;;;;;4.10;3.53;;;;;;;21.03;61.44;92835.25;2041274;70;20135;-84
2023/07/22 08:11:02;;;;;;;3.97;3.35;;;;;;;21.42;61.08;92827.59;2041321;70;20455;-82
2023/07/22 08:13:30;;;;;;;5.13;3.58;;;;;;;21.15;60.63;92826.94;2041592;70;20163;-81
2023/07/22 08:15:59;;;;;;;5.78;3.75;;;;;;;21.40;61.16;92831.13;2041188;70;20242;-82
2023/07/22 08:18:25;;;;;;;5.93;3.50;;;;;;;21.76;60.25;92827.59;2041459;70;20330;-81
2023/07/22 08:20:52;;;;;;;3.85;3.42;;;;;;;21.27;60.38;92829.38;2041640;70;20637;-85
2023/07/22 08:23:18;;;;;;;7.20;3.60;;;;;;;21.61;60.33;92817.97;2041768;70;20235;-81
2023/07/22 08:25:43;;;;;;;7.00;3.97;;;;;;;21.61;60.31;92820.13;2041841;70;20602;-83
2023/07/22 08:28:09;;;;;;;5.05;3.65;;;;;;;21.83;59.24;92818.44;2041980;70;20142;-82
2023/07/22 08:30:35;;;;;;;5.35;3.35;;;;;;;22.43;56.88;92823.22;2041907;70;20162;-82
2023/07/22 08:33:01;;;;;;;4.38;3.50;;;;;;;22.72;57.02;92815.13;2041769;70;20174;-83
2023/07/22 08:35:26;;;;;;;4.72;3.42;;;;;;;22.42;56.93;92798.84;2044400;70;20167;-84
2023/07/22 08:37:53;;;;;;;5.40;3.72;;;;;;;22.55;56.49;92803.38;2042958;70;20151;-82
2023/07/22 08:40:20;;;;;;;6.53;3.67;;;;;;;22.25;57.25;92811.41;2035923;70;20218;-81
2023/07/22 08:42:46;;;;;;;4.90;3.78;;;;;;;22.20;57.54;92807.03;2041757;70;20174;-81
2023/07/22 08:45:11;;;;;;;4.97;3.63;;;;;;;22.69;56.25;92805.06;2042020;70;20147;-85
2023/07/22 08:47:46;;;;;;;4.93;3.72;;;;;;;22.54;56.76;92795.44;2038742;70;20147;-87
2023/07/22 08:50:16;;;;;;;4.85;3.40;;;;;;;22.54;56.16;92812.66;2038806;70;20191;-87
2023/07/22 08:52:44;;;;;;;6.40;3.30;;;;;;;22.95;57.47;92802.63;2041893;70;20146;-88
2023/07/22 08:55:11;;;;;;;5.63;3.78;;;;;;;22.89;59.13;92807.53;2042023;70;20158;-86
2023/07/22 08:57:38;;;;;;;5.00;3.22;;;;;;;23.13;60.06;92793.59;2040195;70;20542;-89
2023/07/22 09:00:06;;;;;;;5.03;3.42;;;;;;;23.28;59.03;92801.03;2044080;70;20148;-87
2023/07/22 09:02:35;;;;;;;5.18;3.10;;;;;;;22.91;54.86;92805.47;2036264;70;20261;-86
2023/07/22 09:05:02;;;;;;;3.95;3.20;;;;;;;22.70;54.63;92800.75;2042272;70;20143;-89
2023/07/22 09:07:29;;;;;;;4.82;3.40;;;;;;;22.83;54.32;92803.16;2039294;70;20155;-87
2023/07/22 09:09:57;;;;;;;3.85;3.38;;;;;;;23.40;54.22;92802.59;2042118;70;20238;-87
2023/07/22 09:12:24;;;;;;;5.57;3.30;;;;;;;23.69;52.70;92801.63;2042779;70;20140;-90
2023/07/22 09:14:51;;;;;;;5.43;3.40;;;;;;;23.67;52.67;92798.00;2039514;70;20590;-90
2023/07/22 09:17:16;;;;;;;4.28;3.13;;;;;;;23.98;52.61;92796.25;2038929;70;20160;-86
2023/07/22 09:19:42;;;;;;;4.85;3.10;;;;;;;24.60;51.83;92798.38;2041996;70;20143;-89
2023/07/22 09:22:07;;;;;;;7.10;3.60;;;;;;;24.78;51.25;92794.97;2042170;70;20521;-86
2023/07/22 09:24:33;;;;;;;3.47;3.05;;;;;;;24.01;51.94;92786.94;2041825;70;20152;-85
2023/07/22 09:27:00;;;;;;;4.22;3.00;;;;;;;24.11;51.44;92774.13;2041784;70;20154;-89
2023/07/22 09:29:44;;;;;;;4.35;2.97;;;;;;;25.01;49.55;92779.31;2041997;70;20258;-86
2023/07/22 09:32:09;;;;;;;3.58;3.03;;;;;;;24.93;50.01;92785.03;2041542;70;20609;-86
2023/07/22 09:34:35;;;;;;;3.80;2.80;;;;;;;24.74;51.06;92777.66;2041774;70;20238;-87
2023/07/22 09:37:03;;;;;;;4.65;3.20;;;;;;;24.81;49.42;92767.66;2041854;70;20230;-86
2023/07/22 09:39:30;;;;;;;4.07;3.17;;;;;;;24.84;49.95;92769.84;2040796;70;20652;-85
2023/07/22 09:41:58;;;;;;;3.90;2.92;;;;;;;25.82;47.35;92764.78;2041139;70;20170;-86
2023/07/22 09:44:37;;;;;;;3.47;2.80;;;;;;;25.74;47.31;92766.88;2041475;70;20143;-85
2023/07/22 09:47:07;;;;;;;3.83;2.90;;;;;;;25.77;46.42;92766.19;2042582;70;20151;-88
2023/07/22 09:49:33;;;;;;;3.10;2.80;;;;;;;25.68;47.97;92752.44;2042747;70;20241;-86
2023/07/22 09:51:58;;;;;;;4.95;3.15;;;;;;;26.47;44.73;92758.53;2042256;70;20156;-83
2023/07/22 09:54:29;;;;;;;3.67;2.85;;;;;;;26.86;44.92;92756.44;2046071;70;20147;-85
2023/07/22 09:56:54;;;;;;;5.20;2.85;;;;;;;27.94;43.58;92761.41;2048538;70;20186;-87
2023/07/22 09:59:22;;;;;;;3.10;2.80;;;;;;;28.55;42.35;92757.56;2048816;70;20229;-85
2023/07/22 10:01:49;;;;;;;8.18;2.72;;;;;;;28.80;42.12;92752.31;2045375;70;20143;-89
2023/07/22 10:04:19;;;;;;;5.13;3.40;;;;;;;27.53;43.38;92752.09;2048854;70;20158;-86
2023/07/22 10:06:45;;;;;;;3.25;2.90;;;;;;;26.90;44.66;92747.06;2048758;70;20143;-88
2023/07/22 10:09:12;;;;;;;6.03;3.50;;;;;;;26.93;44.67;92751.38;2049522;70;20171;-88
2023/07/22 10:11:39;;;;;;;3.88;3.03;;;;;;;27.33;43.42;92741.28;2046434;70;20152;-88
2023/07/22 10:14:06;;;;;;;4.03;3.13;;;;;;;25.98;44.81;92748.97;2046730;70;20104;-87
2023/07/22 10:16:31;;;;;;;3.35;2.80;;;;;;;26.64;44.92;92744.88;2047062;70;20135;-87
2023/07/22 10:18:59;;;;;;;3.40;2.90;;;;;;;26.57;44.07;92741.25;2044709;70;20154;-87
2023/07/22 10:21:29;;;;;;;3.47;2.85;;;;;;;28.20;41.68;92736.72;2043346;70;20206;-90
2023/07/22 10:23:55;;;;;;;3.78;2.90;;;;;;;29.06;39.90;92725.38;2043902;70;20116;-88
2023/07/22 10:26:22;;;;;;;3.83;2.63;;;;;;;29.93;38.94;92732.53;2049100;70;20194;-85
2023/07/22 10:28:48;;;;;;;4.30;2.72;;;;;;;30.09;38.22;92738.13;2047833;70;20151;-87
2023/07/22 10:31:18;;;;;;;3.25;2.67;;;;;;;30.81;36.86;92732.13;2047896;70;20605;-87
2023/07/22 10:33:47;;;;;;;2.90;2.60;;;;;;;30.58;36.35;92734.63;2042777;70;20154;-87
2023/07/22 10:36:17;;;;;;;3.45;2.67;;;;;;;29.25;36.66;92735.34;2042342;70;20250;-89
2023/07/22 10:38:43;;;;;;;3.63;2.90;;;;;;;29.32;37.75;92730.19;2041684;70;20618;-88
2023/07/22 10:41:17;;;;;;;4.55;2.58;;;;;;;28.91;37.58;92729.78;2041674;70;20151;-90
2023/07/22 10:43:53;;;;;;;2.65;2.33;;;;;;;29.82;36.92;92731.19;2041554;70;20140;-88
2023/07/22 10:46:50;;;;;;;3.83;2.80;;;;;;;31.52;35.23;92739.03;2041652;70;20206;-85
2023/07/22 10:49:16;;;;;;;3.35;2.88;;;;;;;33.87;31.25;92728.13;2038913;70;20605;-90
2023/07/22 10:51:50;;;;;;;3.30;2.53;;;;;;;34.45;30.96;92730.22;2042323;70;20226;-88
2023/07/22 10:54:33;;;;;;;4.32;2.63;;;;;;;36.66;28.41;92727.41;2043148;70;20152;-89
2023/07/22 10:57:04;;;;;;;4.05;2.47;;;;;;;36.61;29.72;92726.13;2042277;70;20614;-88
2023/07/22 10:59:34;;;;;;;3.90;2.67;;;;;;;38.26;27.66;92721.69;2043677;70;20182;-90
2023/07/22 11:02:00;;;;;;;2.95;2.67;;;;;;;37.52;28.22;92721.13;2045013;70;20613;-90
2023/07/22 11:04:32;;;;;;;4.18;2.90;;;;;;;36.26;26.55;92712.72;2042684;70;20163;-90
2023/07/22 11:07:05;;;;;;;3.15;2.40;;;;;;;36.05;27.70;92723.72;2041702;70;20163;-90
2023/07/22 11:09:34;;;;;;;4.00;2.53;;;;;;;34.18;30.37;92707.63;2041819;70;20136;-89
2023/07/22 11:12:15;;;;;;;2.53;2.25;;;;;;;38.76;24.63;92700.38;2038472;70;20602;-84
2023/07/22 11:14:52;;;;;;;3.27;2.53;;;;;;;39.81;24.18;92708.59;2042036;70;20690;-91
2023/07/22 11:17:31;;;;;;;4.00;2.47;;;;;;;34.51;28.81;92692.78;2041880;70;20610;-89
2023/07/22 11:19:57;;;;;;;4.05;2.70;;;;;;;33.50;31.16;92687.53;2041809;70;20158;-85
2023/07/22 11:22:23;;;;;;;2.72;2.40;;;;;;;33.11;31.18;92682.63;2041514;70;20605;-84
2023/07/22 11:24:49;;;;;;;2.67;2.47;;;;;;;31.71;33.51;92686.34;2041467;70;20207;-86
2023/07/22 11:27:15;;;;;;;6.60;2.72;;;;;;;30.26;35.61;92683.50;2038535;70;20613;-90
2023/07/22 11:29:41;;;;;;;4.10;2.53;;;;;;;29.91;36.09;92680.28;2041679;70;20167;-89
2023/07/22 11:32:16;;;;;;;4.60;2.75;;;;;;;29.98;35.98;92675.16;2041695;70;20234;-89
2023/07/22 11:34:44;;;;;;;2.78;2.45;;;;;;;36.71;29.91;92678.09;2041740;70;20150;-90